Atwater, New York
Current Conditions -  °F | °C
As of 1:56 PM on Friday 31 Oct 2014 (Local Time) from KITH Reporting Station
Broken Clouds Broken Clouds  
Wind Chill: 47°   Ceiling: 3600
Heat Index: 49°   Visibility: 10mi
Dew Point: 33°   Wind: 5mph
Humidity: 54%   Direction: NA
Pressure: 29.94"   Gusts: NA
Location:  42.6734°N, 76.6263°W
Report Text: KITH 311756Z VRB04KT 10SM BKN036 09/01 A2994 RMK AO2 58016 T00940005 10100 20016 SLP145
Loading
Personal Weather Stations






























Interactive Weather Map
Tropical Storm Tracking
New forecast layout! Learn more

10-Day Weather Forecast

Advertisements
Track Severe Weather on mobile